EDW29Y LSZH-EGPH
Flight info
| Callsign | EDW29Y |
|---|---|
| Flight time | 1h 56m |
| Altitude | 40000 |
| Route | VEBIT1T VEBIT T10 TORPA DCT REKLA DCT RLP DCT ROTSI DCT KOTUN DCT AMAXA DCT VESAN DCT RATUK DCT SOVAT L613 LEHOC DCT INPIP INPIP1E |
| Aircraft | A343/H-SDE2E3FGHIJ4J5M1RWXY/LB1D1 |
Departure
| Time | 2026-04-26 18:32 |
|---|---|
| Airport | Zürich Airport (LSZH) |
Arrival
| Time | 2026-04-26 20:28 |
|---|---|
| Airport | Edinburgh Airport (EGPH) |
| Time | Latitude | Longitude | Altitude | Speed | Heading |
|---|---|---|---|---|---|
| 2026-04-26 17:45 | 47.46038 | 8.55736 | 1415 ft | 0 kts | 6° |
| 2026-04-26 18:00 | 47.46037 | 8.55736 | 1407 ft | 0 kts | 6° |
| 2026-04-26 18:12 | 47.46015 | 8.55733 | 1410 ft | 4 kts | 6° |
| 2026-04-26 18:13 | 47.45989 | 8.55729 | 1410 ft | 4 kts | 6° |
| 2026-04-26 18:13 | 47.45966 | 8.55725 | 1413 ft | 4 kts | 35° |
| 2026-04-26 18:13 | 47.45955 | 8.55696 | 1414 ft | 4 kts | 84° |
| 2026-04-26 18:13 | 47.45954 | 8.55670 | 1406 ft | 4 kts | 92° |
| 2026-04-26 18:14 | 47.45956 | 8.55627 | 1406 ft | 0 kts | 96° |
| 2026-04-26 18:16 | 47.45956 | 8.55629 | 1406 ft | 1 kts | 96° |
| 2026-04-26 18:16 | 47.45956 | 8.55630 | 1406 ft | 0 kts | 96° |
| 2026-04-26 18:17 | 47.45956 | 8.55631 | 1406 ft | 0 kts | 96° |
| 2026-04-26 18:18 | 47.45955 | 8.55647 | 1408 ft | 5 kts | 96° |
| 2026-04-26 18:18 | 47.45949 | 8.55729 | 1416 ft | 10 kts | 96° |
| 2026-04-26 18:18 | 47.45942 | 8.55829 | 1409 ft | 10 kts | 96° |
| 2026-04-26 18:18 | 47.45936 | 8.55904 | 1416 ft | 0 kts | 98° |
| 2026-04-26 18:20 | 47.45921 | 8.55925 | 1419 ft | 5 kts | 147° |
| 2026-04-26 18:20 | 47.45869 | 8.55911 | 1419 ft | 11 kts | 214° |
| 2026-04-26 18:20 | 47.45853 | 8.55829 | 1415 ft | 15 kts | 273° |
| 2026-04-26 18:21 | 47.45870 | 8.55584 | 1413 ft | 21 kts | 276° |
| 2026-04-26 18:21 | 47.45886 | 8.55345 | 1409 ft | 25 kts | 276° |
| 2026-04-26 18:21 | 47.45898 | 8.55140 | 1402 ft | 12 kts | 265° |
| 2026-04-26 18:21 | 47.45830 | 8.55079 | 1403 ft | 14 kts | 175° |
| 2026-04-26 18:22 | 47.45735 | 8.55138 | 1407 ft | 16 kts | 155° |
| 2026-04-26 18:22 | 47.45632 | 8.55208 | 1410 ft | 17 kts | 155° |
| 2026-04-26 18:22 | 47.45491 | 8.55307 | 1411 ft | 25 kts | 154° |
| 2026-04-26 18:22 | 47.45332 | 8.55417 | 1412 ft | 25 kts | 155° |
| 2026-04-26 18:23 | 47.45169 | 8.55529 | 1410 ft | 26 kts | 155° |
| 2026-04-26 18:23 | 47.44998 | 8.55647 | 1411 ft | 28 kts | 155° |
| 2026-04-26 18:23 | 47.44816 | 8.55770 | 1409 ft | 23 kts | 155° |
| 2026-04-26 18:23 | 47.44684 | 8.55854 | 1405 ft | 14 kts | 168° |
| 2026-04-26 18:24 | 47.44613 | 8.55798 | 1408 ft | 13 kts | 234° |
| 2026-04-26 18:24 | 47.44593 | 8.55684 | 1405 ft | 12 kts | 283° |
| 2026-04-26 18:24 | 47.44662 | 8.55598 | 1408 ft | 15 kts | 334° |
| 2026-04-26 18:24 | 47.44781 | 8.55516 | 1408 ft | 27 kts | 335° |
| 2026-04-26 18:25 | 47.45009 | 8.55359 | 1410 ft | 42 kts | 335° |
| 2026-04-26 18:25 | 47.45269 | 8.55182 | 1409 ft | 42 kts | 335° |
| 2026-04-26 18:25 | 47.45361 | 8.55118 | 1407 ft | 7 kts | 334° |
| 2026-04-26 18:25 | 47.45417 | 8.55083 | 1409 ft | 11 kts | 344° |
| 2026-04-26 18:26 | 47.45517 | 8.55109 | 1406 ft | 18 kts | 19° |
| 2026-04-26 18:26 | 47.45645 | 8.55171 | 1408 ft | 20 kts | 13° |
| 2026-04-26 18:26 | 47.45781 | 8.55106 | 1403 ft | 22 kts | 335° |
| 2026-04-26 18:26 | 47.45929 | 8.55004 | 1408 ft | 25 kts | 334° |
| 2026-04-26 18:27 | 47.46097 | 8.54888 | 1405 ft | 28 kts | 335° |
| 2026-04-26 18:27 | 47.46281 | 8.54761 | 1400 ft | 30 kts | 334° |
| 2026-04-26 18:27 | 47.46477 | 8.54625 | 1401 ft | 31 kts | 335° |
| 2026-04-26 18:27 | 47.46527 | 8.54591 | 1397 ft | 2 kts | 336° |
| 2026-04-26 18:28 | 47.46550 | 8.54576 | 1401 ft | 5 kts | 336° |
| 2026-04-26 18:28 | 47.46606 | 8.54538 | 1404 ft | 13 kts | 335° |
| 2026-04-26 18:28 | 47.46717 | 8.54462 | 1386 ft | 22 kts | 338° |
| 2026-04-26 18:28 | 47.46875 | 8.54367 | 1385 ft | 26 kts | 334° |
| 2026-04-26 18:29 | 47.47041 | 8.54253 | 1384 ft | 27 kts | 335° |
| 2026-04-26 18:29 | 47.47210 | 8.54136 | 1397 ft | 27 kts | 334° |
| 2026-04-26 18:29 | 47.47384 | 8.54018 | 1402 ft | 27 kts | 335° |
| 2026-04-26 18:29 | 47.47549 | 8.53904 | 1403 ft | 22 kts | 333° |
| 2026-04-26 18:30 | 47.47609 | 8.53758 | 1406 ft | 17 kts | 263° |
| 2026-04-26 18:30 | 47.47573 | 8.53631 | 1410 ft | 11 kts | 245° |
| 2026-04-26 18:30 | 47.47527 | 8.53626 | 1412 ft | 9 kts | 158° |
| 2026-04-26 18:30 | 47.47503 | 8.53642 | 1408 ft | 0 kts | 155° |
| 2026-04-26 18:31 | 47.47472 | 8.53662 | 1403 ft | 16 kts | 155° |
| 2026-04-26 18:31 | 47.47143 | 8.53890 | 1385 ft | 91 kts | 154° |
| 2026-04-26 18:31 | 47.46370 | 8.54421 | 1385 ft | 152 kts | 156° |
| 2026-04-26 18:32 | 47.45310 | 8.55164 | 1787 ft | 176 kts | 152° |
| 2026-04-26 18:32 | 47.44166 | 8.55978 | 2490 ft | 190 kts | 152° |
| 2026-04-26 18:32 | 47.42973 | 8.57102 | 2872 ft | 218 kts | 129° |
| 2026-04-26 18:32 | 47.42439 | 8.59219 | 3705 ft | 228 kts | 87° |
| 2026-04-26 18:33 | 47.43012 | 8.61298 | 5108 ft | 219 kts | 47° |
| 2026-04-26 18:33 | 47.44336 | 8.62339 | 6362 ft | 221 kts | 8° |
| 2026-04-26 18:33 | 47.45827 | 8.61931 | 7256 ft | 224 kts | 331° |
| 2026-04-26 18:33 | 47.46879 | 8.60228 | 7903 ft | 227 kts | 298° |
| 2026-04-26 18:34 | 47.47528 | 8.58083 | 8775 ft | 230 kts | 289° |
| 2026-04-26 18:34 | 47.47660 | 8.55759 | 9920 ft | 230 kts | 256° |
| 2026-04-26 18:34 | 47.46849 | 8.53739 | 10941 ft | 235 kts | 225° |
| 2026-04-26 18:34 | 47.45472 | 8.52413 | 11887 ft | 239 kts | 214° |
| 2026-04-26 18:35 | 47.44422 | 8.50545 | 12762 ft | 242 kts | 250° |
| 2026-04-26 18:35 | 47.43928 | 8.48063 | 13335 ft | 265 kts | 253° |
| 2026-04-26 18:35 | 47.43136 | 8.45464 | 13824 ft | 289 kts | 243° |
| 2026-04-26 18:35 | 47.42137 | 8.42803 | 14256 ft | 310 kts | 242° |
| 2026-04-26 18:36 | 47.41034 | 8.39948 | 14681 ft | 330 kts | 242° |
| 2026-04-26 18:36 | 47.39854 | 8.36899 | 15260 ft | 343 kts | 242° |
| 2026-04-26 18:36 | 47.38654 | 8.33799 | 16002 ft | 352 kts | 242° |
| 2026-04-26 18:36 | 47.37499 | 8.30630 | 16762 ft | 359 kts | 245° |
| 2026-04-26 18:37 | 47.36345 | 8.27326 | 17525 ft | 365 kts | 245° |
| 2026-04-26 18:37 | 47.35169 | 8.23972 | 18357 ft | 371 kts | 245° |
| 2026-04-26 18:37 | 47.33974 | 8.20575 | 19091 ft | 376 kts | 245° |
| 2026-04-26 18:37 | 47.32754 | 8.17139 | 19833 ft | 380 kts | 245° |
| 2026-04-26 18:38 | 47.31517 | 8.13665 | 20574 ft | 385 kts | 245° |
| 2026-04-26 18:38 | 47.30272 | 8.10155 | 21282 ft | 389 kts | 245° |
| 2026-04-26 18:38 | 47.29012 | 8.06595 | 21958 ft | 394 kts | 246° |
| 2026-04-26 18:38 | 47.27949 | 8.02869 | 22640 ft | 395 kts | 255° |
| 2026-04-26 18:39 | 47.27511 | 8.00221 | 23119 ft | 395 kts | 263° |
| 2026-04-26 18:39 | 47.27340 | 7.96239 | 23780 ft | 395 kts | 275° |
| 2026-04-26 18:39 | 47.27564 | 7.92201 | 24335 ft | 397 kts | 278° |
| 2026-04-26 18:39 | 47.28058 | 7.86773 | 25069 ft | 401 kts | 281° |
| 2026-04-26 18:40 | 47.28338 | 7.84075 | 25431 ft | 404 kts | 281° |
| 2026-04-26 18:40 | 47.28772 | 7.79977 | 25966 ft | 407 kts | 281° |
| 2026-04-26 18:40 | 47.29203 | 7.75839 | 26497 ft | 410 kts | 281° |
| 2026-04-26 18:40 | 47.29622 | 7.71669 | 27016 ft | 413 kts | 280° |
| 2026-04-26 18:41 | 47.30031 | 7.67468 | 27536 ft | 416 kts | 280° |
| 2026-04-26 18:41 | 47.30540 | 7.63267 | 28037 ft | 417 kts | 285° |
| 2026-04-26 18:41 | 47.31315 | 7.59132 | 28522 ft | 420 kts | 288° |
| 2026-04-26 18:41 | 47.32163 | 7.55001 | 28959 ft | 422 kts | 289° |
| 2026-04-26 18:42 | 47.33048 | 7.50868 | 29454 ft | 425 kts | 289° |
| 2026-04-26 18:42 | 47.33957 | 7.46706 | 29907 ft | 428 kts | 290° |
| 2026-04-26 18:42 | 47.34879 | 7.42506 | 30303 ft | 432 kts | 290° |
| 2026-04-26 18:42 | 47.35804 | 7.38282 | 30681 ft | 434 kts | 290° |
| 2026-04-26 18:43 | 47.36728 | 7.34038 | 31094 ft | 435 kts | 290° |
| 2026-04-26 18:43 | 47.37653 | 7.29761 | 31437 ft | 438 kts | 290° |
| 2026-04-26 18:43 | 47.38579 | 7.25460 | 31773 ft | 441 kts | 290° |
| 2026-04-26 18:43 | 47.39505 | 7.21141 | 32168 ft | 442 kts | 290° |
| 2026-04-26 18:44 | 47.40405 | 7.16863 | 32641 ft | 442 kts | 288° |
| 2026-04-26 18:44 | 47.41143 | 7.12459 | 33142 ft | 442 kts | 286° |
| 2026-04-26 18:44 | 47.41826 | 7.08042 | 33592 ft | 441 kts | 285° |
| 2026-04-26 18:44 | 47.42486 | 7.03620 | 34017 ft | 441 kts | 285° |
| 2026-04-26 18:45 | 47.43134 | 6.99190 | 34400 ft | 441 kts | 285° |
| 2026-04-26 18:45 | 47.43776 | 6.94764 | 34792 ft | 440 kts | 285° |
| 2026-04-26 18:45 | 47.44415 | 6.90350 | 35172 ft | 439 kts | 285° |
| 2026-04-26 18:45 | 47.45052 | 6.85946 | 35553 ft | 438 kts | 285° |
| 2026-04-26 18:46 | 47.45688 | 6.81545 | 35932 ft | 438 kts | 285° |
| 2026-04-26 18:46 | 47.46323 | 6.77151 | 36283 ft | 437 kts | 285° |
| 2026-04-26 18:46 | 47.46956 | 6.72759 | 36640 ft | 437 kts | 285° |
| 2026-04-26 18:46 | 47.47587 | 6.68360 | 36985 ft | 437 kts | 284° |
| 2026-04-26 18:47 | 47.48055 | 6.63913 | 37296 ft | 438 kts | 280° |
| 2026-04-26 18:47 | 47.48423 | 6.59441 | 37652 ft | 438 kts | 279° |
| 2026-04-26 18:47 | 47.48761 | 6.54960 | 38021 ft | 438 kts | 279° |
| 2026-04-26 18:47 | 47.49078 | 6.50547 | 38366 ft | 437 kts | 279° |
| 2026-04-26 18:48 | 47.49391 | 6.46083 | 38709 ft | 437 kts | 278° |
| 2026-04-26 18:48 | 47.49702 | 6.41621 | 39005 ft | 436 kts | 278° |
| 2026-04-26 18:48 | 47.50011 | 6.37169 | 39262 ft | 436 kts | 278° |
| 2026-04-26 18:48 | 47.50321 | 6.32710 | 39504 ft | 436 kts | 278° |
| 2026-04-26 18:49 | 47.50631 | 6.28251 | 39745 ft | 436 kts | 278° |
| 2026-04-26 18:49 | 47.50941 | 6.23793 | 39982 ft | 436 kts | 278° |
| 2026-04-26 18:49 | 47.51250 | 6.19332 | 40144 ft | 438 kts | 278° |
| 2026-04-26 18:49 | 47.51560 | 6.14828 | 40167 ft | 441 kts | 278° |
| 2026-04-26 18:50 | 47.52175 | 6.05808 | 40169 ft | 440 kts | 278° |
| 2026-04-26 18:50 | 47.52781 | 5.96797 | 40163 ft | 440 kts | 278° |
| 2026-04-26 18:51 | 47.53972 | 5.87979 | 40163 ft | 436 kts | 291° |
| 2026-04-26 18:51 | 47.56798 | 5.80116 | 40161 ft | 433 kts | 308° |
| 2026-04-26 18:52 | 47.60725 | 5.73368 | 40164 ft | 433 kts | 313° |
| 2026-04-26 18:52 | 47.64795 | 5.66875 | 40171 ft | 433 kts | 313° |
| 2026-04-26 18:53 | 47.68897 | 5.60337 | 40173 ft | 433 kts | 313° |
| 2026-04-26 18:53 | 47.72977 | 5.53757 | 40178 ft | 432 kts | 313° |
| 2026-04-26 18:54 | 47.77036 | 5.47163 | 40168 ft | 432 kts | 312° |
| 2026-04-26 18:54 | 47.81095 | 5.40544 | 40177 ft | 433 kts | 312° |
| 2026-04-26 18:55 | 47.85152 | 5.33915 | 40182 ft | 433 kts | 312° |
| 2026-04-26 18:55 | 47.89211 | 5.27268 | 40191 ft | 433 kts | 312° |
| 2026-04-26 18:56 | 47.93267 | 5.20619 | 40187 ft | 433 kts | 312° |
| 2026-04-26 18:56 | 47.97311 | 5.13961 | 40187 ft | 433 kts | 312° |
| 2026-04-26 18:57 | 48.00668 | 5.08419 | 40179 ft | 433 kts | 312° |
| 2026-04-26 18:57 | 48.05364 | 5.00649 | 40188 ft | 433 kts | 312° |
| 2026-04-26 18:58 | 48.09403 | 4.93950 | 40190 ft | 434 kts | 312° |
| 2026-04-26 18:58 | 48.13440 | 4.87238 | 40194 ft | 434 kts | 312° |
| 2026-04-26 18:59 | 48.17465 | 4.80530 | 40193 ft | 433 kts | 312° |
| 2026-04-26 18:59 | 48.21495 | 4.73795 | 40193 ft | 433 kts | 311° |
| 2026-04-26 19:00 | 48.25517 | 4.67058 | 40191 ft | 434 kts | 311° |
| 2026-04-26 19:00 | 48.29521 | 4.60334 | 40199 ft | 435 kts | 311° |
| 2026-04-26 19:01 | 48.33575 | 4.53506 | 40193 ft | 435 kts | 311° |
| 2026-04-26 19:01 | 48.37574 | 4.46754 | 40193 ft | 435 kts | 311° |
| 2026-04-26 19:02 | 48.41594 | 4.39949 | 40193 ft | 435 kts | 311° |
| 2026-04-26 19:02 | 48.44958 | 4.34241 | 40192 ft | 435 kts | 311° |
| 2026-04-26 19:03 | 48.49622 | 4.26308 | 40192 ft | 436 kts | 311° |
| 2026-04-26 19:03 | 48.53641 | 4.19453 | 40206 ft | 436 kts | 311° |
| 2026-04-26 19:04 | 48.57657 | 4.12583 | 40207 ft | 436 kts | 311° |
| 2026-04-26 19:04 | 48.61674 | 4.05695 | 40212 ft | 436 kts | 311° |
| 2026-04-26 19:05 | 48.67681 | 3.95361 | 40211 ft | 436 kts | 311° |
| 2026-04-26 19:06 | 48.71733 | 3.88536 | 40210 ft | 436 kts | 315° |
| 2026-04-26 19:06 | 48.76414 | 3.82792 | 40213 ft | 437 kts | 322° |
| 2026-04-26 19:07 | 48.81330 | 3.77362 | 40211 ft | 437 kts | 323° |
| 2026-04-26 19:07 | 48.86280 | 3.71988 | 40209 ft | 437 kts | 323° |
| 2026-04-26 19:08 | 48.91221 | 3.66598 | 40217 ft | 437 kts | 323° |
| 2026-04-26 19:08 | 48.96154 | 3.61180 | 40214 ft | 437 kts | 323° |
| 2026-04-26 19:09 | 49.01081 | 3.55747 | 40215 ft | 437 kts | 323° |
| 2026-04-26 19:09 | 49.06004 | 3.50304 | 40213 ft | 437 kts | 323° |
| 2026-04-26 19:10 | 49.10894 | 3.44885 | 40213 ft | 438 kts | 323° |
| 2026-04-26 19:10 | 49.15822 | 3.39411 | 40219 ft | 438 kts | 323° |
| 2026-04-26 19:11 | 49.20744 | 3.33930 | 40215 ft | 438 kts | 323° |
| 2026-04-26 19:11 | 49.25664 | 3.28436 | 40216 ft | 438 kts | 322° |
| 2026-04-26 19:12 | 49.30573 | 3.22942 | 40218 ft | 437 kts | 322° |
| 2026-04-26 19:12 | 49.35481 | 3.17435 | 40216 ft | 437 kts | 322° |
| 2026-04-26 19:13 | 49.40379 | 3.11924 | 40210 ft | 437 kts | 322° |
| 2026-04-26 19:13 | 49.45278 | 3.06399 | 40219 ft | 437 kts | 322° |
| 2026-04-26 19:14 | 49.50180 | 3.00856 | 40227 ft | 437 kts | 322° |
| 2026-04-26 19:14 | 49.55048 | 2.95339 | 40224 ft | 437 kts | 322° |
| 2026-04-26 19:15 | 49.59946 | 2.89772 | 40226 ft | 437 kts | 322° |
| 2026-04-26 19:15 | 49.64837 | 2.84200 | 40227 ft | 437 kts | 322° |
| 2026-04-26 19:16 | 49.69726 | 2.78615 | 40230 ft | 437 kts | 322° |
| 2026-04-26 19:16 | 49.74615 | 2.73017 | 40234 ft | 437 kts | 322° |
| 2026-04-26 19:17 | 49.79505 | 2.67426 | 40235 ft | 437 kts | 322° |
| 2026-04-26 19:17 | 49.84463 | 2.61929 | 40235 ft | 438 kts | 323° |
| 2026-04-26 19:18 | 49.89428 | 2.56456 | 40238 ft | 438 kts | 323° |
| 2026-04-26 19:18 | 49.94385 | 2.50953 | 40249 ft | 438 kts | 323° |
| 2026-04-26 19:19 | 49.99293 | 2.45475 | 40239 ft | 438 kts | 322° |
| 2026-04-26 19:19 | 50.04245 | 2.39926 | 40243 ft | 438 kts | 322° |
| 2026-04-26 19:20 | 50.09183 | 2.34381 | 40249 ft | 438 kts | 322° |
| 2026-04-26 19:20 | 50.14117 | 2.28826 | 40249 ft | 438 kts | 322° |
| 2026-04-26 19:21 | 50.19056 | 2.23251 | 40259 ft | 439 kts | 322° |
| 2026-04-26 19:21 | 50.24003 | 2.17652 | 40263 ft | 440 kts | 322° |
| 2026-04-26 19:22 | 50.28960 | 2.12029 | 40261 ft | 440 kts | 322° |
| 2026-04-26 19:22 | 50.33909 | 2.06400 | 40261 ft | 440 kts | 322° |
| 2026-04-26 19:23 | 50.38842 | 2.00728 | 40268 ft | 440 kts | 320° |
| 2026-04-26 19:23 | 50.43483 | 1.94498 | 40274 ft | 438 kts | 316° |
| 2026-04-26 19:24 | 50.48006 | 1.88075 | 40272 ft | 439 kts | 316° |
| 2026-04-26 19:24 | 50.54835 | 1.78578 | 40266 ft | 440 kts | 317° |
| 2026-04-26 19:25 | 50.57921 | 1.74340 | 40266 ft | 440 kts | 317° |
| 2026-04-26 19:25 | 50.64060 | 1.65907 | 40294 ft | 440 kts | 317° |
| 2026-04-26 19:26 | 50.68665 | 1.59558 | 40290 ft | 440 kts | 317° |
| 2026-04-26 19:26 | 50.73258 | 1.53195 | 40289 ft | 439 kts | 317° |
| 2026-04-26 19:27 | 50.77851 | 1.46814 | 40292 ft | 440 kts | 317° |
| 2026-04-26 19:27 | 50.82442 | 1.40431 | 40292 ft | 440 kts | 316° |
| 2026-04-26 19:28 | 50.87039 | 1.34014 | 40308 ft | 441 kts | 316° |
| 2026-04-26 19:28 | 50.91638 | 1.27578 | 40295 ft | 441 kts | 316° |
| 2026-04-26 19:29 | 50.96200 | 1.21177 | 40295 ft | 441 kts | 316° |
| 2026-04-26 19:29 | 51.00791 | 1.14717 | 40294 ft | 441 kts | 316° |
| 2026-04-26 19:30 | 51.05385 | 1.08258 | 40292 ft | 441 kts | 318° |
| 2026-04-26 19:30 | 51.08676 | 1.04320 | 40296 ft | 442 kts | 322° |
| 2026-04-26 19:31 | 51.15378 | 0.96822 | 40298 ft | 443 kts | 323° |
| 2026-04-26 19:31 | 51.20446 | 0.91224 | 40290 ft | 444 kts | 323° |
| 2026-04-26 19:32 | 51.25524 | 0.85592 | 40286 ft | 444 kts | 323° |
| 2026-04-26 19:32 | 51.30564 | 0.79976 | 40283 ft | 444 kts | 322° |
| 2026-04-26 19:33 | 51.35633 | 0.74308 | 40315 ft | 444 kts | 322° |
| 2026-04-26 19:33 | 51.40692 | 0.68634 | 40315 ft | 444 kts | 322° |
| 2026-04-26 19:34 | 51.44936 | 0.63862 | 40317 ft | 444 kts | 322° |
| 2026-04-26 19:34 | 51.49997 | 0.58157 | 40320 ft | 444 kts | 322° |
| 2026-04-26 19:35 | 51.55021 | 0.52478 | 40319 ft | 444 kts | 322° |
| 2026-04-26 19:35 | 51.60072 | 0.46754 | 40319 ft | 444 kts | 322° |
| 2026-04-26 19:36 | 51.64341 | 0.41902 | 40315 ft | 445 kts | 322° |
| 2026-04-26 19:36 | 51.70200 | 0.35227 | 40312 ft | 446 kts | 322° |
| 2026-04-26 19:37 | 51.75265 | 0.29438 | 40317 ft | 446 kts | 322° |
| 2026-04-26 19:37 | 51.80323 | 0.23641 | 40320 ft | 446 kts | 322° |
| 2026-04-26 19:38 | 51.85376 | 0.17834 | 40320 ft | 446 kts | 322° |
| 2026-04-26 19:38 | 51.90427 | 0.12013 | 40319 ft | 446 kts | 322° |
| 2026-04-26 19:39 | 51.95445 | 0.06212 | 40315 ft | 446 kts | 322° |
| 2026-04-26 19:39 | 52.00493 | 0.00362 | 40314 ft | 446 kts | 322° |
| 2026-04-26 19:40 | 52.05819 | -0.04881 | 40300 ft | 449 kts | 328° |
| 2026-04-26 19:40 | 52.11323 | -0.09759 | 40294 ft | 450 kts | 329° |
| 2026-04-26 19:41 | 52.16843 | -0.14579 | 40296 ft | 450 kts | 329° |
| 2026-04-26 19:41 | 52.21433 | -0.18598 | 40293 ft | 450 kts | 329° |
| 2026-04-26 19:42 | 52.27881 | -0.24277 | 40293 ft | 450 kts | 328° |
| 2026-04-26 19:42 | 52.33360 | -0.29124 | 40276 ft | 450 kts | 328° |
| 2026-04-26 19:43 | 52.38869 | -0.34013 | 40283 ft | 450 kts | 328° |
| 2026-04-26 19:43 | 52.44380 | -0.38917 | 40273 ft | 450 kts | 328° |
| 2026-04-26 19:44 | 52.49887 | -0.43831 | 40273 ft | 450 kts | 328° |
| 2026-04-26 19:44 | 52.55390 | -0.48754 | 40266 ft | 450 kts | 328° |
| 2026-04-26 19:45 | 52.60896 | -0.53696 | 40262 ft | 451 kts | 328° |
| 2026-04-26 19:45 | 52.66394 | -0.58643 | 40265 ft | 450 kts | 328° |
| 2026-04-26 19:46 | 52.71895 | -0.63609 | 40270 ft | 451 kts | 328° |
| 2026-04-26 19:46 | 52.77361 | -0.68559 | 40301 ft | 451 kts | 328° |
| 2026-04-26 19:47 | 52.81960 | -0.72735 | 40292 ft | 450 kts | 328° |
| 2026-04-26 19:47 | 52.88339 | -0.78545 | 40292 ft | 450 kts | 328° |
| 2026-04-26 19:48 | 52.93827 | -0.83559 | 40289 ft | 450 kts | 328° |
| 2026-04-26 19:48 | 52.99304 | -0.88578 | 40290 ft | 450 kts | 328° |
| 2026-04-26 19:49 | 53.04785 | -0.93611 | 40292 ft | 450 kts | 328° |
| 2026-04-26 19:49 | 53.10257 | -0.98650 | 40288 ft | 449 kts | 328° |
| 2026-04-26 19:50 | 53.15727 | -1.03702 | 40281 ft | 450 kts | 328° |
| 2026-04-26 19:50 | 53.21203 | -1.08775 | 40282 ft | 451 kts | 327° |
| 2026-04-26 19:51 | 53.26694 | -1.13874 | 40290 ft | 451 kts | 327° |
| 2026-04-26 19:51 | 53.32144 | -1.18951 | 40279 ft | 451 kts | 327° |
| 2026-04-26 19:52 | 53.37626 | -1.24073 | 40280 ft | 451 kts | 327° |
| 2026-04-26 19:52 | 53.43106 | -1.29206 | 40278 ft | 451 kts | 327° |
| 2026-04-26 19:53 | 53.48581 | -1.34354 | 40277 ft | 451 kts | 327° |
| 2026-04-26 19:53 | 53.54051 | -1.39529 | 40275 ft | 451 kts | 327° |
| 2026-04-26 19:54 | 53.59513 | -1.44709 | 40268 ft | 451 kts | 327° |
| 2026-04-26 19:54 | 53.64987 | -1.49911 | 40270 ft | 451 kts | 327° |
| 2026-04-26 19:55 | 53.70448 | -1.55115 | 40267 ft | 451 kts | 327° |
| 2026-04-26 19:55 | 53.75537 | -1.61158 | 40024 ft | 444 kts | 316° |
| 2026-04-26 19:56 | 53.77866 | -1.64542 | 39788 ft | 440 kts | 315° |
| 2026-04-26 19:56 | 53.80134 | -1.67996 | 39560 ft | 439 kts | 314° |
| 2026-04-26 19:56 | 53.82379 | -1.71489 | 39331 ft | 439 kts | 314° |
| 2026-04-26 19:56 | 53.84594 | -1.74956 | 39102 ft | 439 kts | 313° |
| 2026-04-26 19:57 | 53.86837 | -1.78463 | 38870 ft | 438 kts | 313° |
| 2026-04-26 19:57 | 53.89079 | -1.81957 | 38604 ft | 438 kts | 314° |
| 2026-04-26 19:57 | 53.91327 | -1.85452 | 38310 ft | 438 kts | 313° |
| 2026-04-26 19:57 | 53.93578 | -1.88945 | 38039 ft | 438 kts | 313° |
| 2026-04-26 19:58 | 53.95827 | -1.92435 | 37769 ft | 439 kts | 313° |
| 2026-04-26 19:58 | 53.98083 | -1.95939 | 37514 ft | 439 kts | 313° |
| 2026-04-26 19:58 | 54.00339 | -1.99433 | 37243 ft | 439 kts | 314° |
| 2026-04-26 19:58 | 54.02787 | -2.02580 | 36980 ft | 444 kts | 322° |
| 2026-04-26 19:59 | 54.05415 | -2.05350 | 36730 ft | 445 kts | 324° |
| 2026-04-26 19:59 | 54.08085 | -2.08050 | 36465 ft | 446 kts | 324° |
| 2026-04-26 19:59 | 54.10757 | -2.10737 | 36199 ft | 447 kts | 324° |
| 2026-04-26 19:59 | 54.13401 | -2.13395 | 35986 ft | 448 kts | 324° |
| 2026-04-26 20:00 | 54.16089 | -2.16101 | 35736 ft | 449 kts | 324° |
| 2026-04-26 20:00 | 54.18786 | -2.18818 | 35478 ft | 450 kts | 324° |
| 2026-04-26 20:00 | 54.21483 | -2.21538 | 35230 ft | 451 kts | 324° |
| 2026-04-26 20:00 | 54.24185 | -2.24265 | 35009 ft | 451 kts | 324° |
| 2026-04-26 20:01 | 54.26883 | -2.26994 | 34764 ft | 451 kts | 323° |
| 2026-04-26 20:01 | 54.29582 | -2.29728 | 34520 ft | 451 kts | 323° |
| 2026-04-26 20:01 | 54.32285 | -2.32469 | 34286 ft | 451 kts | 323° |
| 2026-04-26 20:01 | 54.34989 | -2.35217 | 34026 ft | 452 kts | 323° |
| 2026-04-26 20:02 | 54.37698 | -2.37974 | 33742 ft | 453 kts | 323° |
| 2026-04-26 20:02 | 54.40409 | -2.40738 | 33470 ft | 453 kts | 323° |
| 2026-04-26 20:02 | 54.43120 | -2.43507 | 33198 ft | 454 kts | 323° |
| 2026-04-26 20:02 | 54.44922 | -2.45349 | 33007 ft | 455 kts | 323° |
| 2026-04-26 20:03 | 54.48564 | -2.49076 | 32682 ft | 456 kts | 323° |
| 2026-04-26 20:03 | 54.51251 | -2.51831 | 32421 ft | 455 kts | 323° |
| 2026-04-26 20:03 | 54.53969 | -2.54622 | 32158 ft | 455 kts | 323° |
| 2026-04-26 20:03 | 54.56688 | -2.57420 | 31898 ft | 455 kts | 323° |
| 2026-04-26 20:04 | 54.59403 | -2.60217 | 31644 ft | 454 kts | 323° |
| 2026-04-26 20:04 | 54.62117 | -2.63017 | 31392 ft | 453 kts | 324° |
| 2026-04-26 20:04 | 54.64816 | -2.65807 | 31131 ft | 451 kts | 324° |
| 2026-04-26 20:04 | 54.67500 | -2.68585 | 30744 ft | 448 kts | 324° |
| 2026-04-26 20:05 | 54.70158 | -2.71339 | 30121 ft | 443 kts | 324° |
| 2026-04-26 20:05 | 54.72786 | -2.74068 | 29486 ft | 438 kts | 324° |
| 2026-04-26 20:05 | 54.75386 | -2.76773 | 28842 ft | 434 kts | 324° |
| 2026-04-26 20:05 | 54.77961 | -2.79456 | 28213 ft | 429 kts | 324° |
| 2026-04-26 20:06 | 54.80506 | -2.82111 | 27601 ft | 424 kts | 324° |
| 2026-04-26 20:06 | 54.83020 | -2.84740 | 26996 ft | 420 kts | 325° |
| 2026-04-26 20:06 | 54.85512 | -2.87348 | 26374 ft | 417 kts | 325° |
| 2026-04-26 20:06 | 54.88034 | -2.89790 | 25800 ft | 415 kts | 331° |
| 2026-04-26 20:07 | 54.90669 | -2.91805 | 25249 ft | 412 kts | 334° |
| 2026-04-26 20:07 | 54.93274 | -2.93687 | 24672 ft | 410 kts | 334° |
| 2026-04-26 20:07 | 54.95893 | -2.95572 | 24108 ft | 406 kts | 335° |
| 2026-04-26 20:07 | 54.98487 | -2.97445 | 23502 ft | 402 kts | 335° |
| 2026-04-26 20:08 | 55.01054 | -2.99304 | 22912 ft | 396 kts | 335° |
| 2026-04-26 20:08 | 55.03575 | -3.01133 | 22364 ft | 392 kts | 335° |
| 2026-04-26 20:08 | 55.06086 | -3.02960 | 21810 ft | 389 kts | 335° |
| 2026-04-26 20:08 | 55.08581 | -3.04779 | 21276 ft | 387 kts | 335° |
| 2026-04-26 20:09 | 55.11059 | -3.06587 | 20727 ft | 384 kts | 335° |
| 2026-04-26 20:09 | 55.13515 | -3.08382 | 20199 ft | 381 kts | 335° |
| 2026-04-26 20:09 | 55.15957 | -3.10167 | 19606 ft | 379 kts | 335° |
| 2026-04-26 20:09 | 55.18380 | -3.11936 | 19027 ft | 376 kts | 335° |
| 2026-04-26 20:10 | 55.20760 | -3.13684 | 18785 ft | 368 kts | 334° |
| 2026-04-26 20:10 | 55.23079 | -3.15387 | 18591 ft | 353 kts | 334° |
| 2026-04-26 20:10 | 55.25267 | -3.16992 | 18136 ft | 329 kts | 334° |
| 2026-04-26 20:10 | 55.27332 | -3.18510 | 17181 ft | 318 kts | 334° |
| 2026-04-26 20:11 | 55.29389 | -3.19822 | 16362 ft | 310 kts | 343° |
| 2026-04-26 20:11 | 55.31525 | -3.20143 | 15860 ft | 312 kts | 359° |
| 2026-04-26 20:11 | 55.33712 | -3.19872 | 15576 ft | 315 kts | 1° |
| 2026-04-26 20:12 | 55.38062 | -3.19169 | 14900 ft | 313 kts | 2° |
| 2026-04-26 20:12 | 55.40223 | -3.18823 | 14557 ft | 311 kts | 2° |
| 2026-04-26 20:12 | 55.42359 | -3.18483 | 13949 ft | 305 kts | 2° |
| 2026-04-26 20:12 | 55.44467 | -3.18150 | 13041 ft | 304 kts | 2° |
| 2026-04-26 20:13 | 55.46559 | -3.17821 | 12427 ft | 301 kts | 2° |
| 2026-04-26 20:13 | 55.48651 | -3.17493 | 11957 ft | 299 kts | 1° |
| 2026-04-26 20:13 | 55.50714 | -3.17169 | 11484 ft | 298 kts | 2° |
| 2026-04-26 20:13 | 55.52782 | -3.16845 | 11045 ft | 297 kts | 2° |
| 2026-04-26 20:14 | 55.54845 | -3.16521 | 10611 ft | 298 kts | 2° |
| 2026-04-26 20:14 | 55.56906 | -3.16196 | 10294 ft | 296 kts | 2° |
| 2026-04-26 20:14 | 55.58953 | -3.15874 | 9942 ft | 295 kts | 2° |
| 2026-04-26 20:14 | 55.60992 | -3.15551 | 9587 ft | 293 kts | 2° |
| 2026-04-26 20:15 | 55.63012 | -3.15236 | 9270 ft | 290 kts | 2° |
| 2026-04-26 20:15 | 55.64990 | -3.14921 | 9093 ft | 280 kts | 2° |
| 2026-04-26 20:15 | 55.66887 | -3.14616 | 8693 ft | 269 kts | 2° |
| 2026-04-26 20:15 | 55.68737 | -3.14346 | 8084 ft | 264 kts | 359° |
| 2026-04-26 20:16 | 55.70486 | -3.14765 | 7354 ft | 254 kts | 335° |
| 2026-04-26 20:16 | 55.71851 | -3.16595 | 6910 ft | 239 kts | 305° |
| 2026-04-26 20:16 | 55.72599 | -3.19219 | 6635 ft | 240 kts | 286° |
| 2026-04-26 20:16 | 55.73066 | -3.22062 | 6461 ft | 239 kts | 284° |
| 2026-04-26 20:17 | 55.73495 | -3.24865 | 6302 ft | 239 kts | 284° |
| 2026-04-26 20:17 | 55.73934 | -3.27709 | 6177 ft | 239 kts | 284° |
| 2026-04-26 20:17 | 55.74373 | -3.30533 | 6023 ft | 235 kts | 284° |
| 2026-04-26 20:17 | 55.74664 | -3.32395 | 5941 ft | 229 kts | 284° |
| 2026-04-26 20:18 | 55.75217 | -3.35924 | 5770 ft | 219 kts | 284° |
| 2026-04-26 20:18 | 55.75618 | -3.38482 | 5668 ft | 212 kts | 284° |
| 2026-04-26 20:18 | 55.76007 | -3.40963 | 5558 ft | 205 kts | 284° |
| 2026-04-26 20:18 | 55.76383 | -3.43369 | 5410 ft | 200 kts | 284° |
| 2026-04-26 20:19 | 55.76752 | -3.45733 | 5245 ft | 197 kts | 284° |
| 2026-04-26 20:19 | 55.77116 | -3.48067 | 5085 ft | 195 kts | 284° |
| 2026-04-26 20:19 | 55.77477 | -3.50384 | 4961 ft | 195 kts | 284° |
| 2026-04-26 20:19 | 55.77838 | -3.52704 | 4835 ft | 195 kts | 284° |
| 2026-04-26 20:20 | 55.78199 | -3.55022 | 4707 ft | 194 kts | 284° |
| 2026-04-26 20:20 | 55.78557 | -3.57330 | 4602 ft | 194 kts | 284° |
| 2026-04-26 20:20 | 55.78914 | -3.59630 | 4508 ft | 190 kts | 284° |
| 2026-04-26 20:20 | 55.79254 | -3.61824 | 4411 ft | 183 kts | 284° |
| 2026-04-26 20:21 | 55.79586 | -3.63966 | 4312 ft | 177 kts | 284° |
| 2026-04-26 20:21 | 55.79907 | -3.66043 | 4219 ft | 171 kts | 284° |
| 2026-04-26 20:21 | 55.80216 | -3.68042 | 4112 ft | 165 kts | 284° |
| 2026-04-26 20:21 | 55.80513 | -3.69969 | 4021 ft | 158 kts | 284° |
| 2026-04-26 20:22 | 55.80830 | -3.71791 | 3919 ft | 151 kts | 291° |
| 2026-04-26 20:22 | 55.81459 | -3.73284 | 3902 ft | 154 kts | 320° |
| 2026-04-26 20:22 | 55.82509 | -3.73554 | 3875 ft | 163 kts | 18° |
| 2026-04-26 20:22 | 55.83324 | -3.72171 | 3888 ft | 168 kts | 58° |
| 2026-04-26 20:23 | 55.83871 | -3.70312 | 3900 ft | 170 kts | 61° |
| 2026-04-26 20:23 | 55.84432 | -3.68451 | 3906 ft | 170 kts | 58° |
| 2026-04-26 20:23 | 55.85033 | -3.66622 | 3806 ft | 177 kts | 57° |
| 2026-04-26 20:23 | 55.85690 | -3.64699 | 3593 ft | 185 kts | 56° |
| 2026-04-26 20:24 | 55.86353 | -3.62749 | 3323 ft | 188 kts | 57° |
| 2026-04-26 20:24 | 55.87023 | -3.60774 | 3066 ft | 185 kts | 57° |
| 2026-04-26 20:24 | 55.87687 | -3.58818 | 2785 ft | 183 kts | 57° |
| 2026-04-26 20:24 | 55.88335 | -3.56908 | 2522 ft | 178 kts | 57° |
| 2026-04-26 20:25 | 55.88964 | -3.55053 | 2273 ft | 170 kts | 56° |
| 2026-04-26 20:25 | 55.89168 | -3.54452 | 2194 ft | 165 kts | 56° |
| 2026-04-26 20:25 | 55.90093 | -3.51724 | 1839 ft | 145 kts | 55° |
| 2026-04-26 20:25 | 55.90607 | -3.50212 | 1651 ft | 142 kts | 57° |
| 2026-04-26 20:26 | 55.90947 | -3.49210 | 1523 ft | 143 kts | 57° |
| 2026-04-26 20:26 | 55.91458 | -3.47703 | 1332 ft | 142 kts | 57° |
| 2026-04-26 20:26 | 55.91967 | -3.46203 | 1144 ft | 141 kts | 58° |
| 2026-04-26 20:26 | 55.92469 | -3.44717 | 929 ft | 137 kts | 57° |
| 2026-04-26 20:27 | 55.92968 | -3.43258 | 752 ft | 138 kts | 57° |
| 2026-04-26 20:27 | 55.93460 | -3.41794 | 572 ft | 137 kts | 57° |
| 2026-04-26 20:27 | 55.93951 | -3.40334 | 372 ft | 138 kts | 58° |
| 2026-04-26 20:27 | 55.94453 | -3.38883 | 167 ft | 136 kts | 57° |
| 2026-04-26 20:28 | 55.94895 | -3.37565 | 114 ft | 93 kts | 59° |
| 2026-04-26 20:28 | 55.95123 | -3.36886 | 114 ft | 54 kts | 59° |
| 2026-04-26 20:28 | 55.95307 | -3.36344 | 111 ft | 49 kts | 59° |
| 2026-04-26 20:28 | 55.95469 | -3.35864 | 111 ft | 35 kts | 58° |
| 2026-04-26 20:29 | 55.95553 | -3.35612 | 113 ft | 14 kts | 64° |
| 2026-04-26 20:29 | 55.95538 | -3.35494 | 114 ft | 11 kts | 134° |
| 2026-04-26 20:29 | 55.95473 | -3.35415 | 117 ft | 12 kts | 157° |
| 2026-04-26 20:29 | 55.95433 | -3.35426 | 120 ft | 7 kts | 211° |
| 2026-04-26 20:30 | 55.95368 | -3.35588 | 119 ft | 21 kts | 237° |
| 2026-04-26 20:30 | 55.95288 | -3.35827 | 120 ft | 23 kts | 239° |
| 2026-04-26 20:30 | 55.95242 | -3.35952 | 116 ft | 2 kts | 227° |
| 2026-04-26 20:30 | 55.95208 | -3.35973 | 116 ft | 9 kts | 181° |
| 2026-04-26 20:31 | 55.95131 | -3.35895 | 116 ft | 16 kts | 135° |
| 2026-04-26 20:31 | 55.95068 | -3.35801 | 119 ft | 11 kts | 183° |
| 2026-04-26 20:31 | 55.95010 | -3.35836 | 117 ft | 11 kts | 204° |
| 2026-04-26 20:31 | 55.94966 | -3.35945 | 118 ft | 6 kts | 253° |
| 2026-04-26 20:32 | 55.94957 | -3.35997 | 117 ft | 7 kts | 253° |
| 2026-04-26 20:32 | 55.94956 | -3.36006 | 117 ft | 0 kts | 253° |